sensor_id;sensor_type;location;lat;lon;timestamp;pressure;altitude;pressure_sealevel;temperature;humidity
70027;BME280;57506;50.092;15.804;2022-12-18T00:00:59;100677.59;;;-11.79;100.00
70027;BME280;57506;50.092;15.804;2022-12-18T00:03:25;100669.56;;;-11.63;100.00
70027;BME280;57506;50.092;15.804;2022-12-18T00:05:52;100661.66;;;-11.53;100.00
70027;BME280;57506;50.092;15.804;2022-12-18T00:08:18;100666.63;;;-11.36;100.00
70027;BME280;57506;50.092;15.804;2022-12-18T00:10:44;100687.16;;;-11.18;100.00
70027;BME280;57506;50.092;15.804;2022-12-18T00:13:11;100690.50;;;-11.10;100.00
70027;BME280;57506;50.092;15.804;2022-12-18T00:15:38;100697.22;;;-10.93;100.00
70027;BME280;57506;50.092;15.804;2022-12-18T00:18:04;100700.41;;;-10.76;100.00
70027;BME280;57506;50.092;15.804;2022-12-18T00:20:30;100676.19;;;-10.81;100.00
70027;BME280;57506;50.092;15.804;2022-12-18T00:22:56;100687.09;;;-10.56;100.00
70027;BME280;57506;50.092;15.804;2022-12-18T00:25:22;100710.19;;;-10.38;100.00
70027;BME280;57506;50.092;15.804;2022-12-18T00:27:47;100688.53;;;-10.40;100.00
70027;BME280;57506;50.092;15.804;2022-12-18T00:30:13;100697.06;;;-10.32;100.00
70027;BME280;57506;50.092;15.804;2022-12-18T00:32:39;100701.19;;;-10.20;100.00
70027;BME280;57506;50.092;15.804;2022-12-18T00:35:06;100704.34;;;-10.05;100.00
70027;BME280;57506;50.092;15.804;2022-12-18T00:37:33;100695.75;;;-10.08;100.00
70027;BME280;57506;50.092;15.804;2022-12-18T00:39:59;100702.56;;;-10.01;100.00
70027;BME280;57506;50.092;15.804;2022-12-18T00:42:24;100706.78;;;-9.94;100.00
70027;BME280;57506;50.092;15.804;2022-12-18T00:45:08;100703.03;;;-9.81;100.00
70027;BME280;57506;50.092;15.804;2022-12-18T00:47:34;100712.38;;;-9.69;100.00
70027;BME280;57506;50.092;15.804;2022-12-18T00:49:59;100719.03;;;-9.55;100.00
70027;BME280;57506;50.092;15.804;2022-12-18T00:52:25;100706.06;;;-9.58;100.00
70027;BME280;57506;50.092;15.804;2022-12-18T00:54:50;100706.56;;;-9.40;100.00
70027;BME280;57506;50.092;15.804;2022-12-18T00:57:16;100694.09;;;-9.26;100.00
70027;BME280;57506;50.092;15.804;2022-12-18T00:59:41;100718.72;;;-8.99;100.00
70027;BME280;57506;50.092;15.804;2022-12-18T01:02:07;100712.88;;;-9.09;100.00
70027;BME280;57506;50.092;15.804;2022-12-18T01:04:32;100725.31;;;-8.83;100.00
70027;BME280;57506;50.092;15.804;2022-12-18T01:06:58;100725.50;;;-8.91;100.00
70027;BME280;57506;50.092;15.804;2022-12-18T01:09:24;100730.69;;;-8.89;100.00
70027;BME280;57506;50.092;15.804;2022-12-18T01:11:49;100727.94;;;-8.83;100.00
70027;BME280;57506;50.092;15.804;2022-12-18T01:14:14;100738.19;;;-8.75;100.00
70027;BME280;57506;50.092;15.804;2022-12-18T01:16:40;100746.66;;;-8.64;100.00
70027;BME280;57506;50.092;15.804;2022-12-18T01:19:05;100755.38;;;-8.64;100.00
70027;BME280;57506;50.092;15.804;2022-12-18T01:21:31;100756.97;;;-8.58;100.00
70027;BME280;57506;50.092;15.804;2022-12-18T01:23:57;100743.22;;;-8.66;100.00
70027;BME280;57506;50.092;15.804;2022-12-18T01:26:24;100728.56;;;-8.73;100.00
70027;BME280;57506;50.092;15.804;2022-12-18T01:28:49;100752.59;;;-8.58;100.00
70027;BME280;57506;50.092;15.804;2022-12-18T01:31:18;100746.44;;;-8.55;100.00
70027;BME280;57506;50.092;15.804;2022-12-18T01:33:45;100759.44;;;-8.52;100.00
70027;BME280;57506;50.092;15.804;2022-12-18T01:36:18;100768.94;;;-8.48;100.00
70027;BME280;57506;50.092;15.804;2022-12-18T01:38:44;100762.03;;;-8.51;100.00
70027;BME280;57506;50.092;15.804;2022-12-18T01:41:09;100762.63;;;-8.39;100.00
70027;BME280;57506;50.092;15.804;2022-12-18T01:43:56;100753.69;;;-8.31;100.00
70027;BME280;57506;50.092;15.804;2022-12-18T01:46:25;100764.88;;;-8.27;100.00
70027;BME280;57506;50.092;15.804;2022-12-18T01:48:54;100764.66;;;-8.17;100.00
70027;BME280;57506;50.092;15.804;2022-12-18T01:51:20;100761.84;;;-8.11;100.00
70027;BME280;57506;50.092;15.804;2022-12-18T01:53:47;100760.88;;;-8.06;100.00
70027;BME280;57506;50.092;15.804;2022-12-18T01:56:15;100758.97;;;-7.98;100.00
70027;BME280;57506;50.092;15.804;2022-12-18T02:01:16;100760.38;;;-7.87;100.00
70027;BME280;57506;50.092;15.804;2022-12-18T02:03:43;100764.75;;;-7.87;100.00
70027;BME280;57506;50.092;15.804;2022-12-18T02:06:21;100773.31;;;-7.81;100.00
70027;BME280;57506;50.092;15.804;2022-12-18T02:09:03;100755.53;;;-8.00;100.00
70027;BME280;57506;50.092;15.804;2022-12-18T02:14:18;100775.97;;;-7.82;100.00
70027;BME280;57506;50.092;15.804;2022-12-18T02:16:54;100766.03;;;-7.69;100.00
70027;BME280;57506;50.092;15.804;2022-12-18T02:19:44;100762.09;;;-7.53;100.00
70027;BME280;57506;50.092;15.804;2022-12-18T02:24:52;100778.16;;;-7.34;100.00
70027;BME280;57506;50.092;15.804;2022-12-18T02:27:19;100792.28;;;-7.40;100.00
70027;BME280;57506;50.092;15.804;2022-12-18T02:29:53;100777.03;;;-7.57;100.00
70027;BME280;57506;50.092;15.804;2022-12-18T02:32:33;100801.41;;;-7.55;100.00
70027;BME280;57506;50.092;15.804;2022-12-18T02:35:02;100790.88;;;-7.52;100.00
70027;BME280;57506;50.092;15.804;2022-12-18T02:37:30;100792.59;;;-7.51;100.00
70027;BME280;57506;50.092;15.804;2022-12-18T02:39:56;100788.16;;;-7.49;100.00
70027;BME280;57506;50.092;15.804;2022-12-18T02:42:24;100768.13;;;-7.50;100.00
70027;BME280;57506;50.092;15.804;2022-12-18T02:44:51;100784.47;;;-7.42;100.00
70027;BME280;57506;50.092;15.804;2022-12-18T02:47:22;100773.44;;;-7.53;100.00
70027;BME280;57506;50.092;15.804;2022-12-18T03:00:34;100806.63;;;-7.22;100.00
70027;BME280;57506;50.092;15.804;2022-12-18T03:05:33;100809.78;;;-7.11;100.00
70027;BME280;57506;50.092;15.804;2022-12-18T03:08:15;100816.63;;;-7.06;100.00
70027;BME280;57506;50.092;15.804;2022-12-18T03:10:56;100791.28;;;-7.05;100.00
70027;BME280;57506;50.092;15.804;2022-12-18T03:13:53;100803.22;;;-6.95;100.00
70027;BME280;57506;50.092;15.804;2022-12-18T03:16:27;100790.50;;;-7.09;100.00
70027;BME280;57506;50.092;15.804;2022-12-18T03:18:57;100810.16;;;-6.94;100.00
70027;BME280;57506;50.092;15.804;2022-12-18T03:21:29;100803.22;;;-6.95;100.00
70027;BME280;57506;50.092;15.804;2022-12-18T03:23:58;100810.81;;;-6.86;100.00
70027;BME280;57506;50.092;15.804;2022-12-18T03:26:25;100820.97;;;-6.75;100.00
70027;BME280;57506;50.092;15.804;2022-12-18T03:29:03;100821.06;;;-6.78;100.00
70027;BME280;57506;50.092;15.804;2022-12-18T03:31:30;100817.47;;;-6.74;100.00
70027;BME280;57506;50.092;15.804;2022-12-18T03:34:01;100831.94;;;-6.62;100.00
70027;BME280;57506;50.092;15.804;2022-12-18T03:36:29;100826.09;;;-6.71;100.00
70027;BME280;57506;50.092;15.804;2022-12-18T03:38:55;100825.91;;;-6.64;100.00
70027;BME280;57506;50.092;15.804;2022-12-18T03:41:29;100831.59;;;-6.50;100.00
70027;BME280;57506;50.092;15.804;2022-12-18T03:46:35;100824.72;;;-6.54;100.00
70027;BME280;57506;50.092;15.804;2022-12-18T03:49:12;100816.06;;;-6.56;100.00
70027;BME280;57506;50.092;15.804;2022-12-18T03:51:43;100821.13;;;-6.50;100.00
70027;BME280;57506;50.092;15.804;2022-12-18T03:54:11;100834.84;;;-6.42;100.00
70027;BME280;57506;50.092;15.804;2022-12-18T03:56:45;100834.28;;;-6.52;100.00
70027;BME280;57506;50.092;15.804;2022-12-18T03:59:15;100842.63;;;-6.39;100.00
70027;BME280;57506;50.092;15.804;2022-12-18T04:01:46;100828.34;;;-6.30;100.00
70027;BME280;57506;50.092;15.804;2022-12-18T04:04:14;100837.34;;;-6.38;100.00
70027;BME280;57506;50.092;15.804;2022-12-18T04:06:41;100850.75;;;-6.19;100.00
70027;BME280;57506;50.092;15.804;2022-12-18T04:09:07;100840.66;;;-6.32;100.00
70027;BME280;57506;50.092;15.804;2022-12-18T04:11:33;100848.38;;;-6.28;100.00
70027;BME280;57506;50.092;15.804;2022-12-18T04:13:59;100858.69;;;-6.22;100.00
70027;BME280;57506;50.092;15.804;2022-12-18T04:16:25;100832.56;;;-6.25;100.00
70027;BME280;57506;50.092;15.804;2022-12-18T04:18:52;100845.81;;;-6.29;100.00
70027;BME280;57506;50.092;15.804;2022-12-18T04:21:18;100870.19;;;-6.26;100.00
70027;BME280;57506;50.092;15.804;2022-12-18T04:23:44;100871.81;;;-6.22;100.00
70027;BME280;57506;50.092;15.804;2022-12-18T04:26:09;100875.47;;;-6.00;100.00
70027;BME280;57506;50.092;15.804;2022-12-18T04:28:35;100875.38;;;-6.24;100.00
70027;BME280;57506;50.092;15.804;2022-12-18T04:31:01;100860.97;;;-6.39;100.00
70027;BME280;57506;50.092;15.804;2022-12-18T04:33:26;100880.28;;;-6.14;100.00
70027;BME280;57506;50.092;15.804;2022-12-18T04:35:52;100867.47;;;-6.23;100.00
70027;BME280;57506;50.092;15.804;2022-12-18T04:38:18;100870.22;;;-6.27;100.00
70027;BME280;57506;50.092;15.804;2022-12-18T04:40:43;100866.94;;;-6.34;100.00
70027;BME280;57506;50.092;15.804;2022-12-18T04:43:09;100859.78;;;-6.29;100.00
70027;BME280;57506;50.092;15.804;2022-12-18T04:45:34;100876.94;;;-6.17;100.00
70027;BME280;57506;50.092;15.804;2022-12-18T04:48:00;100888.03;;;-6.09;100.00
70027;BME280;57506;50.092;15.804;2022-12-18T04:50:26;100884.53;;;-6.10;100.00
70027;BME280;57506;50.092;15.804;2022-12-18T04:52:52;100881.09;;;-6.12;100.00
70027;BME280;57506;50.092;15.804;2022-12-18T04:55:18;100886.72;;;-5.96;100.00
70027;BME280;57506;50.092;15.804;2022-12-18T04:57:44;100892.19;;;-6.02;100.00
70027;BME280;57506;50.092;15.804;2022-12-18T05:00:10;100897.09;;;-5.91;100.00
70027;BME280;57506;50.092;15.804;2022-12-18T05:02:35;100896.06;;;-5.87;100.00
70027;BME280;57506;50.092;15.804;2022-12-18T05:05:01;100868.34;;;-5.96;100.00
70027;BME280;57506;50.092;15.804;2022-12-18T05:07:26;100874.22;;;-5.88;100.00
70027;BME280;57506;50.092;15.804;2022-12-18T05:09:52;100888.03;;;-5.83;100.00
70027;BME280;57506;50.092;15.804;2022-12-18T05:12:17;100890.28;;;-5.71;100.00
70027;BME280;57506;50.092;15.804;2022-12-18T05:14:43;100891.75;;;-5.88;100.00
70027;BME280;57506;50.092;15.804;2022-12-18T05:17:08;100899.81;;;-5.94;100.00
70027;BME280;57506;50.092;15.804;2022-12-18T05:19:34;100884.38;;;-6.04;100.00
70027;BME280;57506;50.092;15.804;2022-12-18T05:21:59;100895.47;;;-5.95;100.00
70027;BME280;57506;50.092;15.804;2022-12-18T05:24:26;100894.56;;;-5.94;100.00
70027;BME280;57506;50.092;15.804;2022-12-18T05:26:52;100879.19;;;-5.80;100.00
70027;BME280;57506;50.092;15.804;2022-12-18T05:29:17;100892.91;;;-5.71;100.00
70027;BME280;57506;50.092;15.804;2022-12-18T05:31:42;100898.03;;;-5.68;100.00
70027;BME280;57506;50.092;15.804;2022-12-18T05:34:08;100906.34;;;-5.53;100.00
70027;BME280;57506;50.092;15.804;2022-12-18T05:36:34;100904.53;;;-5.79;100.00
70027;BME280;57506;50.092;15.804;2022-12-18T05:38:59;100911.59;;;-5.81;100.00
70027;BME280;57506;50.092;15.804;2022-12-18T05:41:25;100920.97;;;-5.73;100.00
70027;BME280;57506;50.092;15.804;2022-12-18T05:43:51;100923.50;;;-5.70;100.00
70027;BME280;57506;50.092;15.804;2022-12-18T05:46:17;100919.44;;;-5.80;100.00
70027;BME280;57506;50.092;15.804;2022-12-18T05:48:44;100924.38;;;-5.69;100.00
70027;BME280;57506;50.092;15.804;2022-12-18T05:51:15;100937.53;;;-5.71;100.00
70027;BME280;57506;50.092;15.804;2022-12-18T05:53:41;100933.41;;;-5.79;100.00
70027;BME280;57506;50.092;15.804;2022-12-18T05:56:10;100942.94;;;-5.75;100.00
70027;BME280;57506;50.092;15.804;2022-12-18T05:58:36;100928.31;;;-5.84;100.00
70027;BME280;57506;50.092;15.804;2022-12-18T06:01:10;100945.59;;;-5.77;100.00
70027;BME280;57506;50.092;15.804;2022-12-18T06:03:35;100939.31;;;-5.71;100.00
70027;BME280;57506;50.092;15.804;2022-12-18T06:06:01;100924.78;;;-5.55;100.00
70027;BME280;57506;50.092;15.804;2022-12-18T06:08:27;100939.34;;;-5.73;100.00
70027;BME280;57506;50.092;15.804;2022-12-18T06:10:52;100956.78;;;-5.70;100.00
70027;BME280;57506;50.092;15.804;2022-12-18T06:13:19;100956.56;;;-5.64;100.00
70027;BME280;57506;50.092;15.804;2022-12-18T06:15:45;100964.41;;;-5.63;100.00
70027;BME280;57506;50.092;15.804;2022-12-18T06:18:11;100960.09;;;-5.65;100.00
70027;BME280;57506;50.092;15.804;2022-12-18T06:20:36;100942.25;;;-5.82;100.00
70027;BME280;57506;50.092;15.804;2022-12-18T06:23:05;100955.97;;;-5.72;100.00
70027;BME280;57506;50.092;15.804;2022-12-18T06:25:31;100978.03;;;-5.51;100.00
70027;BME280;57506;50.092;15.804;2022-12-18T06:27:57;100988.75;;;-5.57;100.00
70027;BME280;57506;50.092;15.804;2022-12-18T06:30:22;100981.81;;;-5.60;100.00
70027;BME280;57506;50.092;15.804;2022-12-18T06:32:49;100986.78;;;-5.51;100.00
70027;BME280;57506;50.092;15.804;2022-12-18T06:35:14;100956.56;;;-5.64;100.00
70027;BME280;57506;50.092;15.804;2022-12-18T06:37:40;100976.81;;;-5.68;100.00
70027;BME280;57506;50.092;15.804;2022-12-18T06:40:06;100975.34;;;-5.76;100.00
70027;BME280;57506;50.092;15.804;2022-12-18T06:42:32;100968.28;;;-5.74;100.00
70027;BME280;57506;50.092;15.804;2022-12-18T06:44:57;100971.41;;;-5.63;100.00
70027;BME280;57506;50.092;15.804;2022-12-18T06:47:23;100988.00;;;-5.61;100.00
70027;BME280;57506;50.092;15.804;2022-12-18T06:49:49;100996.88;;;-5.65;100.00
70027;BME280;57506;50.092;15.804;2022-12-18T06:52:14;100979.06;;;-5.55;100.00
70027;BME280;57506;50.092;15.804;2022-12-18T06:54:41;100980.03;;;-5.58;100.00
70027;BME280;57506;50.092;15.804;2022-12-18T06:57:07;100996.69;;;-5.59;100.00
70027;BME280;57506;50.092;15.804;2022-12-18T06:59:33;100981.31;;;-5.71;100.00
70027;BME280;57506;50.092;15.804;2022-12-18T07:01:58;101005.88;;;-5.46;100.00
70027;BME280;57506;50.092;15.804;2022-12-18T07:04:30;101010.22;;;-5.45;100.00
70027;BME280;57506;50.092;15.804;2022-12-18T07:06:57;101008.34;;;-5.40;100.00
70027;BME280;57506;50.092;15.804;2022-12-18T07:09:23;101006.59;;;-5.41;100.00
70027;BME280;57506;50.092;15.804;2022-12-18T07:11:49;100995.88;;;-5.35;100.00
70027;BME280;57506;50.092;15.804;2022-12-18T07:14:14;101009.97;;;-5.36;100.00
70027;BME280;57506;50.092;15.804;2022-12-18T07:16:40;101002.06;;;-5.36;100.00
70027;BME280;57506;50.092;15.804;2022-12-18T07:19:06;101010.66;;;-5.31;100.00
70027;BME280;57506;50.092;15.804;2022-12-18T07:21:31;101008.88;;;-5.30;100.00
70027;BME280;57506;50.092;15.804;2022-12-18T07:23:57;101012.88;;;-5.18;100.00
70027;BME280;57506;50.092;15.804;2022-12-18T07:26:23;101013.13;;;-5.26;100.00
70027;BME280;57506;50.092;15.804;2022-12-18T07:28:49;101016.66;;;-5.27;100.00
70027;BME280;57506;50.092;15.804;2022-12-18T07:31:18;101040.69;;;-5.11;100.00
70027;BME280;57506;50.092;15.804;2022-12-18T07:33:43;101033.81;;;-5.15;100.00
70027;BME280;57506;50.092;15.804;2022-12-18T07:36:09;101051.06;;;-5.07;100.00
70027;BME280;57506;50.092;15.804;2022-12-18T07:38:36;101032.63;;;-5.05;100.00
70027;BME280;57506;50.092;15.804;2022-12-18T07:41:11;101026.53;;;-5.07;100.00
70027;BME280;57506;50.092;15.804;2022-12-18T07:43:38;101049.47;;;-4.86;100.00
70027;BME280;57506;50.092;15.804;2022-12-18T07:46:04;101013.13;;;-5.00;100.00
70027;BME280;57506;50.092;15.804;2022-12-18T07:48:30;101061.72;;;-4.85;100.00
70027;BME280;57506;50.092;15.804;2022-12-18T07:51:00;101055.75;;;-4.90;100.00
70027;BME280;57506;50.092;15.804;2022-12-18T07:53:26;101031.56;;;-5.01;100.00
70027;BME280;57506;50.092;15.804;2022-12-18T07:55:56;101041.38;;;-4.80;100.00
70027;BME280;57506;50.092;15.804;2022-12-18T07:58:22;101049.75;;;-4.69;100.00
70027;BME280;57506;50.092;15.804;2022-12-18T08:00:47;101055.63;;;-4.61;100.00
70027;BME280;57506;50.092;15.804;2022-12-18T08:03:41;101055.06;;;-4.44;100.00
70027;BME280;57506;50.092;15.804;2022-12-18T08:06:09;101060.56;;;-4.51;100.00
70027;BME280;57506;50.092;15.804;2022-12-18T08:08:35;101072.06;;;-4.54;100.00
70027;BME280;57506;50.092;15.804;2022-12-18T08:11:01;100989.34;;;-5.21;100.00
70027;BME280;57506;50.092;15.804;2022-12-18T08:13:26;101080.38;;;-4.66;100.00
70027;BME280;57506;50.092;15.804;2022-12-18T08:16:00;101056.53;;;-4.62;100.00
70027;BME280;57506;50.092;15.804;2022-12-18T08:18:27;101048.81;;;-4.66;100.00
70027;BME280;57506;50.092;15.804;2022-12-18T08:20:54;101077.25;;;-4.52;100.00
70027;BME280;57506;50.092;15.804;2022-12-18T08:23:20;101062.66;;;-4.61;100.00
70027;BME280;57506;50.092;15.804;2022-12-18T08:25:45;101009.69;;;-5.02;100.00
70027;BME280;57506;50.092;15.804;2022-12-18T08:28:11;101070.13;;;-4.74;100.00
70027;BME280;57506;50.092;15.804;2022-12-18T08:30:37;101048.84;;;-4.68;100.00
70027;BME280;57506;50.092;15.804;2022-12-18T08:33:03;101076.97;;;-4.43;100.00
70027;BME280;57506;50.092;15.804;2022-12-18T08:35:28;100981.59;;;-5.00;100.00
70027;BME280;57506;50.092;15.804;2022-12-18T08:37:54;101046.84;;;-4.60;100.00
70027;BME280;57506;50.092;15.804;2022-12-18T08:40:20;101079.25;;;-4.34;100.00
70027;BME280;57506;50.092;15.804;2022-12-18T08:42:45;101059.44;;;-4.44;100.00
70027;BME280;57506;50.092;15.804;2022-12-18T08:45:30;101032.47;;;-4.51;100.00
70027;BME280;57506;50.092;15.804;2022-12-18T08:47:55;101084.69;;;-4.14;100.00
70027;BME280;57506;50.092;15.804;2022-12-18T08:50:21;101082.22;;;-4.18;100.00
70027;BME280;57506;50.092;15.804;2022-12-18T08:52:46;101090.16;;;-4.20;100.00
70027;BME280;57506;50.092;15.804;2022-12-18T08:55:12;101051.94;;;-4.30;100.00
70027;BME280;57506;50.092;15.804;2022-12-18T08:57:38;101080.28;;;-4.13;100.00
70027;BME280;57506;50.092;15.804;2022-12-18T09:00:04;101081.84;;;-4.08;100.00
70027;BME280;57506;50.092;15.804;2022-12-18T09:02:30;101097.13;;;-3.71;100.00
70027;BME280;57506;50.092;15.804;2022-12-18T09:04:55;101096.88;;;-3.63;100.00
70027;BME280;57506;50.092;15.804;2022-12-18T09:07:21;101097.09;;;-3.69;100.00
70027;BME280;57506;50.092;15.804;2022-12-18T09:09:46;101109.16;;;-3.40;100.00
70027;BME280;57506;50.092;15.804;2022-12-18T09:12:12;101067.78;;;-3.60;100.00
70027;BME280;57506;50.092;15.804;2022-12-18T09:14:37;101093.63;;;-3.25;100.00
70027;BME280;57506;50.092;15.804;2022-12-18T09:17:03;101103.59;;;-3.33;100.00
70027;BME280;57506;50.092;15.804;2022-12-18T09:19:29;101088.44;;;-3.49;100.00
70027;BME280;57506;50.092;15.804;2022-12-18T09:21:55;101080.63;;;-3.29;100.00
70027;BME280;57506;50.092;15.804;2022-12-18T09:24:23;101101.41;;;-3.00;100.00
70027;BME280;57506;50.092;15.804;2022-12-18T09:26:53;101103.22;;;-3.45;100.00
70027;BME280;57506;50.092;15.804;2022-12-18T09:29:19;101098.16;;;-3.28;100.00
70027;BME280;57506;50.092;15.804;2022-12-18T09:31:45;101085.25;;;-3.36;100.00
70027;BME280;57506;50.092;15.804;2022-12-18T09:34:10;101087.41;;;-3.24;100.00
70027;BME280;57506;50.092;15.804;2022-12-18T09:36:36;101079.66;;;-3.27;100.00
70027;BME280;57506;50.092;15.804;2022-12-18T09:39:02;101076.31;;;-3.32;100.00
70027;BME280;57506;50.092;15.804;2022-12-18T09:41:53;101091.38;;;-3.35;100.00
70027;BME280;57506;50.092;15.804;2022-12-18T09:49:26;101059.84;;;-3.15;100.00
70027;BME280;57506;50.092;15.804;2022-12-18T09:51:57;101099.19;;;-2.89;100.00
70027;BME280;57506;50.092;15.804;2022-12-18T09:54:33;101092.53;;;-2.97;100.00
70027;BME280;57506;50.092;15.804;2022-12-18T09:57:01;101098.28;;;-2.88;100.00
70027;BME280;57506;50.092;15.804;2022-12-18T09:59:32;101085.28;;;-2.92;100.00
70027;BME280;57506;50.092;15.804;2022-12-18T10:02:01;101088.09;;;-2.97;100.00
70027;BME280;57506;50.092;15.804;2022-12-18T10:04:37;101087.94;;;-2.72;100.00
70027;BME280;57506;50.092;15.804;2022-12-18T10:07:24;101075.03;;;-2.78;100.00
70027;BME280;57506;50.092;15.804;2022-12-18T10:10:13;101100.72;;;-3.05;100.00
70027;BME280;57506;50.092;15.804;2022-12-18T10:12:58;101100.66;;;-2.82;100.00
70027;BME280;57506;50.092;15.804;2022-12-18T10:15:45;101105.25;;;-2.87;100.00
70027;BME280;57506;50.092;15.804;2022-12-18T10:21:00;101103.00;;;-3.18;100.00
70027;BME280;57506;50.092;15.804;2022-12-18T10:23:45;101117.31;;;-2.79;100.00
70027;BME280;57506;50.092;15.804;2022-12-18T10:26:17;101091.78;;;-2.79;100.00
70027;BME280;57506;50.092;15.804;2022-12-18T10:28:43;101112.81;;;-2.99;100.00
70027;BME280;57506;50.092;15.804;2022-12-18T10:31:18;101118.69;;;-2.71;100.00
70027;BME280;57506;50.092;15.804;2022-12-18T10:33:44;101104.84;;;-2.76;100.00
70027;BME280;57506;50.092;15.804;2022-12-18T10:36:10;101119.31;;;-2.64;100.00
70027;BME280;57506;50.092;15.804;2022-12-18T10:38:36;101127.34;;;-2.89;100.00
70027;BME280;57506;50.092;15.804;2022-12-18T10:43:47;101121.84;;;-2.83;100.00
70027;BME280;57506;50.092;15.804;2022-12-18T10:46:16;101129.00;;;-2.65;100.00
70027;BME280;57506;50.092;15.804;2022-12-18T10:51:35;101127.84;;;-2.37;100.00
70027;BME280;57506;50.092;15.804;2022-12-18T10:54:04;101124.13;;;-2.54;100.00
70027;BME280;57506;50.092;15.804;2022-12-18T10:56:33;101114.09;;;-2.66;100.00
70027;BME280;57506;50.092;15.804;2022-12-18T10:59:09;101126.94;;;-2.36;100.00
70027;BME280;57506;50.092;15.804;2022-12-18T11:01:55;101129.31;;;-2.72;100.00
70027;BME280;57506;50.092;15.804;2022-12-18T11:04:24;101128.94;;;-2.85;100.00
70027;BME280;57506;50.092;15.804;2022-12-18T11:07:01;101123.63;;;-2.41;100.00
70027;BME280;57506;50.092;15.804;2022-12-18T11:09:40;101112.78;;;-2.56;100.00
70027;BME280;57506;50.092;15.804;2022-12-18T11:12:17;101092.72;;;-2.39;100.00
70027;BME280;57506;50.092;15.804;2022-12-18T11:14:53;101104.16;;;-2.19;100.00
70027;BME280;57506;50.092;15.804;2022-12-18T11:17:32;101103.94;;;-2.55;100.00
70027;BME280;57506;50.092;15.804;2022-12-18T11:20:04;101101.56;;;-2.40;100.00
70027;BME280;57506;50.092;15.804;2022-12-18T11:22:33;101087.59;;;-2.22;100.00
70027;BME280;57506;50.092;15.804;2022-12-18T11:27:31;101087.50;;;-2.41;100.00
70027;BME280;57506;50.092;15.804;2022-12-18T11:30:21;101095.22;;;-2.57;100.00
70027;BME280;57506;50.092;15.804;2022-12-18T11:33:06;101089.16;;;-2.59;100.00
70027;BME280;57506;50.092;15.804;2022-12-18T11:38:23;101093.34;;;-2.75;100.00
70027;BME280;57506;50.092;15.804;2022-12-18T11:41:01;101088.22;;;-2.58;100.00
70027;BME280;57506;50.092;15.804;2022-12-18T11:46:17;101086.66;;;-2.62;100.00
70027;BME280;57506;50.092;15.804;2022-12-18T11:48:57;101083.22;;;-2.64;100.00
70027;BME280;57506;50.092;15.804;2022-12-18T11:51:33;101068.97;;;-2.60;100.00
70027;BME280;57506;50.092;15.804;2022-12-18T11:54:01;101076.97;;;-2.61;100.00
70027;BME280;57506;50.092;15.804;2022-12-18T11:56:33;101058.91;;;-3.14;100.00
70027;BME280;57506;50.092;15.804;2022-12-18T12:02:20;101066.09;;;-3.18;100.00
70027;BME280;57506;50.092;15.804;2022-12-18T12:05:35;101075.22;;;-3.04;100.00
70027;BME280;57506;50.092;15.804;2022-12-18T12:16:18;101063.19;;;-2.27;100.00
70027;BME280;57506;50.092;15.804;2022-12-18T12:21:42;101079.88;;;-2.89;100.00
70027;BME280;57506;50.092;15.804;2022-12-18T12:24:39;101080.94;;;-2.73;100.00
70027;BME280;57506;50.092;15.804;2022-12-18T12:27:37;101076.31;;;-2.88;100.00
70027;BME280;57506;50.092;15.804;2022-12-18T12:30:28;101073.59;;;-2.87;100.00
70027;BME280;57506;50.092;15.804;2022-12-18T12:38:44;101053.00;;;-2.99;100.00
70027;BME280;57506;50.092;15.804;2022-12-18T12:41:19;101063.88;;;-2.64;100.00
70027;BME280;57506;50.092;15.804;2022-12-18T12:44:08;101057.88;;;-2.68;100.00
70027;BME280;57506;50.092;15.804;2022-12-18T12:46:39;101066.81;;;-2.92;100.00
70027;BME280;57506;50.092;15.804;2022-12-18T12:49:14;101064.13;;;-3.12;100.00
70027;BME280;57506;50.092;15.804;2022-12-18T12:51:43;101057.38;;;-3.20;100.00
70027;BME280;57506;50.092;15.804;2022-12-18T12:54:31;101059.50;;;-2.86;100.00
70027;BME280;57506;50.092;15.804;2022-12-18T12:57:18;101064.09;;;-2.49;100.00
70027;BME280;57506;50.092;15.804;2022-12-18T12:59:56;101056.84;;;-2.43;100.00
70027;BME280;57506;50.092;15.804;2022-12-18T13:05:06;101043.63;;;-2.64;100.00
70027;BME280;57506;50.092;15.804;2022-12-18T13:08:05;101058.56;;;-2.85;100.00
70027;BME280;57506;50.092;15.804;2022-12-18T13:10:36;101041.38;;;-2.73;100.00
70027;BME280;57506;50.092;15.804;2022-12-18T13:13:08;101065.31;;;-2.57;100.00
70027;BME280;57506;50.092;15.804;2022-12-18T13:15:48;101087.31;;;-2.57;100.00
70027;BME280;57506;50.092;15.804;2022-12-18T13:18:15;101088.06;;;-2.75;100.00
70027;BME280;57506;50.092;15.804;2022-12-18T13:23:28;101093.31;;;-2.95;100.00
70027;BME280;57506;50.092;15.804;2022-12-18T13:34:17;101101.59;;;-3.26;100.00
70027;BME280;57506;50.092;15.804;2022-12-18T13:36:43;101093.84;;;-3.31;100.00
70027;BME280;57506;50.092;15.804;2022-12-18T13:41:42;101081.63;;;-3.10;100.00
70027;BME280;57506;50.092;15.804;2022-12-18T13:46:55;101086.94;;;-3.57;100.00
70027;BME280;57506;50.092;15.804;2022-12-18T13:49:25;101095.41;;;-3.48;100.00
70027;BME280;57506;50.092;15.804;2022-12-18T13:51:55;101094.00;;;-3.57;100.00
70027;BME280;57506;50.092;15.804;2022-12-18T13:54:36;101098.91;;;-3.71;100.00
70027;BME280;57506;50.092;15.804;2022-12-18T13:57:03;101118.47;;;-3.77;100.00
70027;BME280;57506;50.092;15.804;2022-12-18T13:59:37;101116.38;;;-3.92;100.00
70027;BME280;57506;50.092;15.804;2022-12-18T14:04:37;101126.97;;;-3.70;100.00
70027;BME280;57506;50.092;15.804;2022-12-18T14:07:10;101103.31;;;-3.72;100.00
70027;BME280;57506;50.092;15.804;2022-12-18T14:12:35;101137.31;;;-3.64;100.00